sensor_id;sensor_type;location;lat;lon;timestamp;P1;durP1;ratioP1;P2;durP2;ratioP2
28577;SDS011;15769;52.248;15.818;2023-02-01T00:01:40;13.05;;;3.47;;
28577;SDS011;15769;52.248;15.818;2023-02-01T00:06:43;17.85;;;3.92;;
28577;SDS011;15769;52.248;15.818;2023-02-01T00:11:46;11.40;;;2.27;;
28577;SDS011;15769;52.248;15.818;2023-02-01T00:16:55;14.15;;;3.47;;
28577;SDS011;15769;52.248;15.818;2023-02-01T00:21:58;8.27;;;2.65;;
28577;SDS011;15769;52.248;15.818;2023-02-01T00:27:00;11.43;;;2.97;;
28577;SDS011;15769;52.248;15.818;2023-02-01T00:32:03;13.70;;;2.97;;
28577;SDS011;15769;52.248;15.818;2023-02-01T00:37:07;19.60;;;3.33;;
28577;SDS011;15769;52.248;15.818;2023-02-01T00:42:10;12.55;;;2.97;;
28577;SDS011;15769;52.248;15.818;2023-02-01T00:47:13;14.63;;;3.42;;
28577;SDS011;15769;52.248;15.818;2023-02-01T00:52:15;15.40;;;4.10;;
28577;SDS011;15769;52.248;15.818;2023-02-01T00:57:18;21.67;;;6.65;;
28577;SDS011;15769;52.248;15.818;2023-02-01T01:02:22;27.67;;;10.47;;
28577;SDS011;15769;52.248;15.818;2023-02-01T01:07:24;27.52;;;11.27;;
28577;SDS011;15769;52.248;15.818;2023-02-01T01:12:27;27.77;;;10.10;;
28577;SDS011;15769;52.248;15.818;2023-02-01T01:17:31;18.47;;;5.90;;
28577;SDS011;15769;52.248;15.818;2023-02-01T01:22:33;17.92;;;5.22;;
28577;SDS011;15769;52.248;15.818;2023-02-01T01:27:36;20.42;;;5.38;;
28577;SDS011;15769;52.248;15.818;2023-02-01T01:32:38;14.98;;;4.57;;
28577;SDS011;15769;52.248;15.818;2023-02-01T01:37:41;15.30;;;4.30;;
28577;SDS011;15769;52.248;15.818;2023-02-01T01:42:45;13.20;;;3.50;;
28577;SDS011;15769;52.248;15.818;2023-02-01T01:47:48;12.15;;;3.20;;
28577;SDS011;15769;52.248;15.818;2023-02-01T01:53:31;17.70;;;3.85;;
28577;SDS011;15769;52.248;15.818;2023-02-01T01:58:36;22.35;;;4.35;;
28577;SDS011;15769;52.248;15.818;2023-02-01T02:03:40;18.73;;;4.53;;
28577;SDS011;15769;52.248;15.818;2023-02-01T02:08:45;21.48;;;4.50;;
28577;SDS011;15769;52.248;15.818;2023-02-01T02:13:50;15.30;;;3.40;;
28577;SDS011;15769;52.248;15.818;2023-02-01T02:24:14;21.88;;;5.10;;
28577;SDS011;15769;52.248;15.818;2023-02-01T02:29:48;16.17;;;3.72;;
28577;SDS011;15769;52.248;15.818;2023-02-01T02:35:26;20.35;;;4.75;;
28577;SDS011;15769;52.248;15.818;2023-02-01T02:40:49;14.70;;;4.03;;
28577;SDS011;15769;52.248;15.818;2023-02-01T02:46:08;25.67;;;7.40;;
28577;SDS011;15769;52.248;15.818;2023-02-01T02:51:41;26.92;;;4.97;;
28577;SDS011;15769;52.248;15.818;2023-02-01T02:57:08;19.13;;;4.13;;
28577;SDS011;15769;52.248;15.818;2023-02-01T03:02:33;24.67;;;4.50;;
28577;SDS011;15769;52.248;15.818;2023-02-01T03:07:57;11.68;;;3.00;;
28577;SDS011;15769;52.248;15.818;2023-02-01T03:13:06;17.83;;;3.95;;
28577;SDS011;15769;52.248;15.818;2023-02-01T03:18:13;18.83;;;4.20;;
28577;SDS011;15769;52.248;15.818;2023-02-01T03:23:21;13.82;;;3.22;;
28577;SDS011;15769;52.248;15.818;2023-02-01T03:28:27;14.05;;;3.58;;
28577;SDS011;15769;52.248;15.818;2023-02-01T03:33:32;17.08;;;3.72;;
28577;SDS011;15769;52.248;15.818;2023-02-01T03:38:38;18.23;;;3.20;;
28577;SDS011;15769;52.248;15.818;2023-02-01T03:49:34;13.60;;;2.67;;
28577;SDS011;15769;52.248;15.818;2023-02-01T03:54:39;18.45;;;3.30;;
28577;SDS011;15769;52.248;15.818;2023-02-01T03:59:44;16.25;;;2.97;;
28577;SDS011;15769;52.248;15.818;2023-02-01T04:04:47;17.65;;;3.53;;
28577;SDS011;15769;52.248;15.818;2023-02-01T04:09:52;21.35;;;4.15;;
28577;SDS011;15769;52.248;15.818;2023-02-01T04:14:54;19.17;;;3.67;;
28577;SDS011;15769;52.248;15.818;2023-02-01T04:19:58;19.15;;;4.45;;
28577;SDS011;15769;52.248;15.818;2023-02-01T04:30:07;17.00;;;3.90;;
28577;SDS011;15769;52.248;15.818;2023-02-01T04:35:13;21.55;;;3.90;;
28577;SDS011;15769;52.248;15.818;2023-02-01T04:40:16;24.98;;;5.32;;
28577;SDS011;15769;52.248;15.818;2023-02-01T04:45:19;20.15;;;5.22;;
28577;SDS011;15769;52.248;15.818;2023-02-01T04:50:21;16.50;;;3.80;;
28577;SDS011;15769;52.248;15.818;2023-02-01T04:55:26;13.80;;;3.45;;
28577;SDS011;15769;52.248;15.818;2023-02-01T05:00:28;17.08;;;3.75;;
28577;SDS011;15769;52.248;15.818;2023-02-01T05:05:31;21.23;;;5.57;;
28577;SDS011;15769;52.248;15.818;2023-02-01T05:15:36;16.67;;;3.80;;
28577;SDS011;15769;52.248;15.818;2023-02-01T05:20:39;21.40;;;4.30;;
28577;SDS011;15769;52.248;15.818;2023-02-01T05:25:41;19.95;;;3.58;;
28577;SDS011;15769;52.248;15.818;2023-02-01T05:30:44;20.63;;;4.38;;
28577;SDS011;15769;52.248;15.818;2023-02-01T05:35:47;16.05;;;3.63;;
28577;SDS011;15769;52.248;15.818;2023-02-01T05:40:51;15.98;;;3.53;;
28577;SDS011;15769;52.248;15.818;2023-02-01T05:45:54;25.70;;;4.57;;
28577;SDS011;15769;52.248;15.818;2023-02-01T05:50:57;18.17;;;4.13;;
28577;SDS011;15769;52.248;15.818;2023-02-01T05:56:00;21.10;;;4.63;;
28577;SDS011;15769;52.248;15.818;2023-02-01T06:01:03;20.02;;;5.85;;
28577;SDS011;15769;52.248;15.818;2023-02-01T06:06:06;19.52;;;6.18;;
28577;SDS011;15769;52.248;15.818;2023-02-01T06:11:09;22.00;;;4.93;;
28577;SDS011;15769;52.248;15.818;2023-02-01T06:16:15;13.75;;;3.67;;
28577;SDS011;15769;52.248;15.818;2023-02-01T06:21:17;21.27;;;4.60;;
28577;SDS011;15769;52.248;15.818;2023-02-01T06:26:26;15.75;;;4.13;;
28577;SDS011;15769;52.248;15.818;2023-02-01T06:31:32;18.95;;;4.18;;
28577;SDS011;15769;52.248;15.818;2023-02-01T06:36:35;16.73;;;4.28;;
28577;SDS011;15769;52.248;15.818;2023-02-01T06:41:37;18.97;;;4.37;;
28577;SDS011;15769;52.248;15.818;2023-02-01T06:46:44;15.60;;;4.85;;
28577;SDS011;15769;52.248;15.818;2023-02-01T06:51:49;21.48;;;5.45;;
28577;SDS011;15769;52.248;15.818;2023-02-01T06:56:56;21.13;;;5.65;;
28577;SDS011;15769;52.248;15.818;2023-02-01T07:01:58;21.90;;;5.80;;
28577;SDS011;15769;52.248;15.818;2023-02-01T07:07:03;21.48;;;5.15;;
28577;SDS011;15769;52.248;15.818;2023-02-01T07:12:06;25.40;;;6.25;;
28577;SDS011;15769;52.248;15.818;2023-02-01T07:17:13;26.15;;;6.50;;
28577;SDS011;15769;52.248;15.818;2023-02-01T07:22:16;31.70;;;6.90;;
28577;SDS011;15769;52.248;15.818;2023-02-01T07:27:19;27.27;;;6.22;;
28577;SDS011;15769;52.248;15.818;2023-02-01T07:32:23;24.45;;;5.00;;
28577;SDS011;15769;52.248;15.818;2023-02-01T07:37:26;22.70;;;6.18;;
28577;SDS011;15769;52.248;15.818;2023-02-01T07:42:29;20.45;;;5.97;;
28577;SDS011;15769;52.248;15.818;2023-02-01T07:47:31;25.75;;;6.10;;
28577;SDS011;15769;52.248;15.818;2023-02-01T07:52:33;21.23;;;5.22;;
28577;SDS011;15769;52.248;15.818;2023-02-01T07:57:36;15.10;;;4.18;;
28577;SDS011;15769;52.248;15.818;2023-02-01T08:02:38;23.95;;;5.25;;
28577;SDS011;15769;52.248;15.818;2023-02-01T08:07:41;19.83;;;4.80;;
28577;SDS011;15769;52.248;15.818;2023-02-01T08:12:43;14.63;;;4.28;;
28577;SDS011;15769;52.248;15.818;2023-02-01T08:17:50;19.50;;;5.55;;
28577;SDS011;15769;52.248;15.818;2023-02-01T08:22:52;23.10;;;4.38;;
28577;SDS011;15769;52.248;15.818;2023-02-01T08:27:56;26.00;;;6.03;;
28577;SDS011;15769;52.248;15.818;2023-02-01T08:32:58;28.60;;;6.88;;
28577;SDS011;15769;52.248;15.818;2023-02-01T08:38:04;22.80;;;5.50;;
28577;SDS011;15769;52.248;15.818;2023-02-01T08:43:06;23.52;;;5.72;;
28577;SDS011;15769;52.248;15.818;2023-02-01T08:48:09;23.43;;;6.07;;
28577;SDS011;15769;52.248;15.818;2023-02-01T08:53:12;17.13;;;5.40;;
28577;SDS011;15769;52.248;15.818;2023-02-01T08:58:16;22.30;;;5.60;;
28577;SDS011;15769;52.248;15.818;2023-02-01T09:03:20;22.42;;;7.40;;
28577;SDS011;15769;52.248;15.818;2023-02-01T09:08:23;36.80;;;11.20;;
28577;SDS011;15769;52.248;15.818;2023-02-01T09:13:26;42.53;;;12.23;;
28577;SDS011;15769;52.248;15.818;2023-02-01T09:18:29;30.50;;;10.32;;
28577;SDS011;15769;52.248;15.818;2023-02-01T09:23:32;27.52;;;7.28;;
28577;SDS011;15769;52.248;15.818;2023-02-01T09:28:36;24.20;;;6.50;;
28577;SDS011;15769;52.248;15.818;2023-02-01T09:33:38;19.67;;;6.28;;
28577;SDS011;15769;52.248;15.818;2023-02-01T09:38:44;17.08;;;6.28;;
28577;SDS011;15769;52.248;15.818;2023-02-01T09:44:01;21.70;;;6.60;;
28577;SDS011;15769;52.248;15.818;2023-02-01T09:49:10;22.88;;;6.13;;
28577;SDS011;15769;52.248;15.818;2023-02-01T09:54:17;27.63;;;7.43;;
28577;SDS011;15769;52.248;15.818;2023-02-01T09:59:44;16.92;;;6.53;;
28577;SDS011;15769;52.248;15.818;2023-02-01T10:04:49;17.15;;;6.43;;
28577;SDS011;15769;52.248;15.818;2023-02-01T10:09:58;27.73;;;10.67;;
28577;SDS011;15769;52.248;15.818;2023-02-01T10:20:50;23.95;;;7.10;;
28577;SDS011;15769;52.248;15.818;2023-02-01T10:25:55;32.17;;;10.82;;
28577;SDS011;15769;52.248;15.818;2023-02-01T10:31:02;18.15;;;7.93;;
28577;SDS011;15769;52.248;15.818;2023-02-01T10:41:43;12.88;;;4.32;;
28577;SDS011;15769;52.248;15.818;2023-02-01T10:51:51;9.68;;;4.30;;
28577;SDS011;15769;52.248;15.818;2023-02-01T10:56:56;11.90;;;4.47;;
28577;SDS011;15769;52.248;15.818;2023-02-01T11:02:05;8.40;;;4.30;;
28577;SDS011;15769;52.248;15.818;2023-02-01T11:07:24;28.95;;;14.75;;
28577;SDS011;15769;52.248;15.818;2023-02-01T11:17:39;8.23;;;6.22;;
28577;SDS011;15769;52.248;15.818;2023-02-01T11:22:46;44.47;;;24.27;;
28577;SDS011;15769;52.248;15.818;2023-02-01T11:27:50;20.92;;;13.00;;
28577;SDS011;15769;52.248;15.818;2023-02-01T11:32:57;16.52;;;6.38;;
28577;SDS011;15769;52.248;15.818;2023-02-01T11:37:59;17.08;;;6.40;;
28577;SDS011;15769;52.248;15.818;2023-02-01T11:48:20;21.08;;;8.32;;
28577;SDS011;15769;52.248;15.818;2023-02-01T11:59:17;23.60;;;10.13;;
28577;SDS011;15769;52.248;15.818;2023-02-01T12:10:03;22.58;;;9.10;;
28577;SDS011;15769;52.248;15.818;2023-02-01T12:42:13;41.20;;;18.55;;
28577;SDS011;15769;52.248;15.818;2023-02-01T12:47:27;67.38;;;30.23;;
28577;SDS011;15769;52.248;15.818;2023-02-01T12:52:37;68.03;;;33.33;;
28577;SDS011;15769;52.248;15.818;2023-02-01T12:57:44;41.38;;;20.40;;
28577;SDS011;15769;52.248;15.818;2023-02-01T13:03:34;37.85;;;20.05;;
28577;SDS011;15769;52.248;15.818;2023-02-01T13:14:42;35.78;;;18.85;;
28577;SDS011;15769;52.248;15.818;2023-02-01T13:25:20;43.13;;;21.75;;
28577;SDS011;15769;52.248;15.818;2023-02-01T13:30:51;34.20;;;15.40;;
28577;SDS011;15769;52.248;15.818;2023-02-01T13:36:06;23.17;;;11.88;;
28577;SDS011;15769;52.248;15.818;2023-02-01T13:46:43;24.80;;;11.07;;
28577;SDS011;15769;52.248;15.818;2023-02-01T13:51:48;27.42;;;13.68;;
28577;SDS011;15769;52.248;15.818;2023-02-01T13:56:52;17.25;;;7.85;;
28577;SDS011;15769;52.248;15.818;2023-02-01T14:01:55;15.82;;;7.18;;
28577;SDS011;15769;52.248;15.818;2023-02-01T14:06:58;24.70;;;12.13;;
28577;SDS011;15769;52.248;15.818;2023-02-01T14:12:41;30.30;;;13.63;;
28577;SDS011;15769;52.248;15.818;2023-02-01T14:17:41;20.13;;;11.25;;
28577;SDS011;15769;52.248;15.818;2023-02-01T14:22:43;24.05;;;9.70;;
28577;SDS011;15769;52.248;15.818;2023-02-01T14:27:46;23.17;;;11.43;;
28577;SDS011;15769;52.248;15.818;2023-02-01T14:32:49;19.73;;;9.65;;
28577;SDS011;15769;52.248;15.818;2023-02-01T14:37:58;30.40;;;12.47;;
28577;SDS011;15769;52.248;15.818;2023-02-01T14:43:14;18.92;;;10.23;;
28577;SDS011;15769;52.248;15.818;2023-02-01T14:53:36;29.58;;;12.63;;
28577;SDS011;15769;52.248;15.818;2023-02-01T14:58:41;30.85;;;14.45;;
28577;SDS011;15769;52.248;15.818;2023-02-01T15:03:51;32.08;;;13.10;;
28577;SDS011;15769;52.248;15.818;2023-02-01T15:14:11;28.02;;;14.38;;
28577;SDS011;15769;52.248;15.818;2023-02-01T15:19:16;64.32;;;23.05;;
28577;SDS011;15769;52.248;15.818;2023-02-01T15:24:19;91.70;;;28.80;;
28577;SDS011;15769;52.248;15.818;2023-02-01T15:29:32;92.03;;;26.77;;
28577;SDS011;15769;52.248;15.818;2023-02-01T15:34:46;124.25;;;35.67;;
28577;SDS011;15769;52.248;15.818;2023-02-01T15:45:26;81.78;;;24.55;;
28577;SDS011;15769;52.248;15.818;2023-02-01T15:50:31;48.78;;;16.45;;
28577;SDS011;15769;52.248;15.818;2023-02-01T15:55:38;31.20;;;11.10;;
28577;SDS011;15769;52.248;15.818;2023-02-01T16:00:55;36.63;;;16.52;;
28577;SDS011;15769;52.248;15.818;2023-02-01T16:06:02;31.83;;;13.75;;
28577;SDS011;15769;52.248;15.818;2023-02-01T16:16:09;32.83;;;14.95;;
28577;SDS011;15769;52.248;15.818;2023-02-01T16:21:16;53.28;;;25.63;;
28577;SDS011;15769;52.248;15.818;2023-02-01T16:26:18;62.30;;;26.90;;
28577;SDS011;15769;52.248;15.818;2023-02-01T16:31:24;69.27;;;26.30;;
28577;SDS011;15769;52.248;15.818;2023-02-01T16:36:29;61.13;;;24.00;;
28577;SDS011;15769;52.248;15.818;2023-02-01T16:41:33;59.05;;;24.65;;
28577;SDS011;15769;52.248;15.818;2023-02-01T16:46:44;48.70;;;21.02;;
28577;SDS011;15769;52.248;15.818;2023-02-01T16:51:48;39.13;;;18.30;;
28577;SDS011;15769;52.248;15.818;2023-02-01T16:56:52;62.78;;;23.48;;
28577;SDS011;15769;52.248;15.818;2023-02-01T17:01:55;130.70;;;40.90;;
28577;SDS011;15769;52.248;15.818;2023-02-01T17:06:58;186.07;;;53.08;;
28577;SDS011;15769;52.248;15.818;2023-02-01T17:12:04;117.13;;;38.17;;
28577;SDS011;15769;52.248;15.818;2023-02-01T17:17:07;73.95;;;24.33;;
28577;SDS011;15769;52.248;15.818;2023-02-01T17:22:11;58.92;;;20.23;;
28577;SDS011;15769;52.248;15.818;2023-02-01T17:27:16;55.05;;;20.90;;
28577;SDS011;15769;52.248;15.818;2023-02-01T17:37:25;34.95;;;13.15;;
28577;SDS011;15769;52.248;15.818;2023-02-01T17:42:29;34.28;;;14.68;;
28577;SDS011;15769;52.248;15.818;2023-02-01T17:47:32;41.47;;;15.18;;
28577;SDS011;15769;52.248;15.818;2023-02-01T17:52:35;32.05;;;13.20;;
28577;SDS011;15769;52.248;15.818;2023-02-01T17:57:38;32.13;;;14.10;;
28577;SDS011;15769;52.248;15.818;2023-02-01T18:02:43;34.42;;;12.70;;
28577;SDS011;15769;52.248;15.818;2023-02-01T18:07:47;23.13;;;10.40;;
28577;SDS011;15769;52.248;15.818;2023-02-01T18:12:51;22.90;;;11.05;;
28577;SDS011;15769;52.248;15.818;2023-02-01T18:17:54;22.13;;;10.00;;
28577;SDS011;15769;52.248;15.818;2023-02-01T18:23:20;26.27;;;14.80;;
28577;SDS011;15769;52.248;15.818;2023-02-01T18:28:25;26.65;;;12.77;;
28577;SDS011;15769;52.248;15.818;2023-02-01T18:33:27;24.48;;;12.30;;
28577;SDS011;15769;52.248;15.818;2023-02-01T18:38:32;28.15;;;15.68;;
28577;SDS011;15769;52.248;15.818;2023-02-01T18:43:35;28.73;;;13.90;;
28577;SDS011;15769;52.248;15.818;2023-02-01T18:48:40;33.38;;;16.05;;
28577;SDS011;15769;52.248;15.818;2023-02-01T18:53:44;34.83;;;17.30;;
28577;SDS011;15769;52.248;15.818;2023-02-01T18:58:47;26.50;;;13.17;;
28577;SDS011;15769;52.248;15.818;2023-02-01T19:03:49;18.40;;;11.03;;
28577;SDS011;15769;52.248;15.818;2023-02-01T19:09:14;20.50;;;12.75;;
28577;SDS011;15769;52.248;15.818;2023-02-01T19:14:20;28.63;;;17.25;;
28577;SDS011;15769;52.248;15.818;2023-02-01T19:19:29;33.33;;;18.05;;
28577;SDS011;15769;52.248;15.818;2023-02-01T19:24:31;40.05;;;18.27;;
28577;SDS011;15769;52.248;15.818;2023-02-01T19:29:34;28.27;;;17.37;;
28577;SDS011;15769;52.248;15.818;2023-02-01T19:34:39;19.77;;;11.73;;
28577;SDS011;15769;52.248;15.818;2023-02-01T19:39:48;14.05;;;7.05;;
28577;SDS011;15769;52.248;15.818;2023-02-01T19:44:53;11.35;;;5.53;;
28577;SDS011;15769;52.248;15.818;2023-02-01T19:49:59;7.15;;;3.78;;
28577;SDS011;15769;52.248;15.818;2023-02-01T19:55:28;6.88;;;3.70;;
28577;SDS011;15769;52.248;15.818;2023-02-01T20:00:35;6.40;;;3.40;;
28577;SDS011;15769;52.248;15.818;2023-02-01T20:05:39;6.80;;;3.92;;
28577;SDS011;15769;52.248;15.818;2023-02-01T20:10:46;10.10;;;4.60;;
28577;SDS011;15769;52.248;15.818;2023-02-01T20:15:57;10.38;;;3.38;;
28577;SDS011;15769;52.248;15.818;2023-02-01T20:21:15;7.72;;;3.50;;
28577;SDS011;15769;52.248;15.818;2023-02-01T20:26:20;17.75;;;10.65;;
28577;SDS011;15769;52.248;15.818;2023-02-01T20:31:32;8.98;;;5.20;;
28577;SDS011;15769;52.248;15.818;2023-02-01T20:36:35;6.55;;;3.42;;
28577;SDS011;15769;52.248;15.818;2023-02-01T20:41:40;6.63;;;4.20;;
28577;SDS011;15769;52.248;15.818;2023-02-01T20:46:47;9.18;;;4.88;;
28577;SDS011;15769;52.248;15.818;2023-02-01T20:51:52;7.30;;;4.67;;
28577;SDS011;15769;52.248;15.818;2023-02-01T20:57:42;13.32;;;6.93;;
28577;SDS011;15769;52.248;15.818;2023-02-01T21:02:46;11.57;;;6.20;;
28577;SDS011;15769;52.248;15.818;2023-02-01T21:07:49;10.75;;;5.05;;
28577;SDS011;15769;52.248;15.818;2023-02-01T21:12:52;11.80;;;5.60;;
28577;SDS011;15769;52.248;15.818;2023-02-01T21:18:06;14.32;;;6.60;;
28577;SDS011;15769;52.248;15.818;2023-02-01T21:23:10;14.77;;;4.78;;
28577;SDS011;15769;52.248;15.818;2023-02-01T21:28:14;11.82;;;4.20;;
28577;SDS011;15769;52.248;15.818;2023-02-01T21:33:36;8.88;;;3.35;;
28577;SDS011;15769;52.248;15.818;2023-02-01T21:39:22;13.38;;;4.10;;
28577;SDS011;15769;52.248;15.818;2023-02-01T21:44:47;12.35;;;4.72;;
28577;SDS011;15769;52.248;15.818;2023-02-01T21:49:53;20.80;;;6.97;;
28577;SDS011;15769;52.248;15.818;2023-02-01T21:54:58;15.55;;;6.80;;
28577;SDS011;15769;52.248;15.818;2023-02-01T22:00:04;17.90;;;8.30;;
28577;SDS011;15769;52.248;15.818;2023-02-01T22:05:39;25.00;;;11.90;;
28577;SDS011;15769;52.248;15.818;2023-02-01T22:10:42;24.45;;;10.35;;
28577;SDS011;15769;52.248;15.818;2023-02-01T22:21:35;25.98;;;13.32;;
28577;SDS011;15769;52.248;15.818;2023-02-01T22:32:19;24.15;;;9.05;;
28577;SDS011;15769;52.248;15.818;2023-02-01T22:37:23;23.63;;;7.90;;
28577;SDS011;15769;52.248;15.818;2023-02-01T22:42:35;21.27;;;7.70;;
28577;SDS011;15769;52.248;15.818;2023-02-01T22:47:38;22.33;;;9.15;;
28577;SDS011;15769;52.248;15.818;2023-02-01T22:52:51;19.95;;;9.32;;
28577;SDS011;15769;52.248;15.818;2023-02-01T22:57:53;17.02;;;4.57;;
28577;SDS011;15769;52.248;15.818;2023-02-01T23:02:59;15.73;;;4.05;;
28577;SDS011;15769;52.248;15.818;2023-02-01T23:08:04;20.67;;;5.95;;
28577;SDS011;15769;52.248;15.818;2023-02-01T23:13:07;18.05;;;4.85;;
28577;SDS011;15769;52.248;15.818;2023-02-01T23:18:12;16.40;;;6.75;;
28577;SDS011;15769;52.248;15.818;2023-02-01T23:23:33;22.73;;;7.85;;
28577;SDS011;15769;52.248;15.818;2023-02-01T23:29:13;17.88;;;5.72;;
28577;SDS011;15769;52.248;15.818;2023-02-01T23:34:31;17.85;;;6.30;;
28577;SDS011;15769;52.248;15.818;2023-02-01T23:39:34;21.20;;;8.97;;
28577;SDS011;15769;52.248;15.818;2023-02-01T23:44:37;21.33;;;6.32;;
28577;SDS011;15769;52.248;15.818;2023-02-01T23:49:46;14.68;;;6.18;;
28577;SDS011;15769;52.248;15.818;2023-02-01T23:54:49;14.75;;;4.07;;
28577;SDS011;15769;52.248;15.818;2023-02-01T23:59:51;18.65;;;4.25;;
